Terminal Aerodrome Forecast
Issued by NWS Sterling, VA

Current Version | Previous Version | Graphics & Text | Print | Product List | Glossary On
Versions: 1 2 3 4 5 6 7 8 9 10 11 12 13 14 15 16
000
FTUS41 KLWX 091700 AAA
TAFMRB
TAF AMD
KMRB 091758Z 0918/1018 21008KT P6SM VCTS BKN050CB BKN130
      TEMPO 0918/0919 VRB15KT 5SM TSRA
     FM100000 VRB03KT P6SM FEW050 SCT130
     FM100600 VRB03KT 5SM BR FEW050 SCT130
     FM100900 VRB03KT 2SM BR FEW050 SCT130
     FM101300 01004KT P6SM BKN050 BKN130
     FM101700 09005KT P6SM BKN050 BKN130=

USA.gov is the U.S. government's official web portal to all federal, state and local government web resources and services.